createdAt,value
2023-05-09T00:00:39.976Z,94.00
2023-05-09T00:03:06.531Z,82.00
2023-05-09T00:05:33.211Z,85.25
2023-05-09T00:07:59.716Z,91.25
2023-05-09T00:10:27.030Z,85.75
2023-05-09T00:12:53.578Z,57.25
2023-05-09T00:15:20.075Z,65.25
2023-05-09T00:17:46.684Z,79.00
2023-05-09T00:20:13.171Z,70.00
2023-05-09T00:22:43.247Z,46.50
2023-05-09T00:25:10.908Z,73.25
2023-05-09T00:27:37.832Z,72.50
2023-05-09T00:30:05.176Z,79.50
2023-05-09T00:32:32.625Z,78.25
2023-05-09T00:34:59.398Z,81.25
2023-05-09T00:37:26.427Z,74.25
2023-05-09T00:39:53.272Z,69.25
2023-05-09T00:42:20.088Z,75.25
2023-05-09T00:44:46.610Z,73.00
2023-05-09T00:47:13.331Z,67.00
2023-05-09T00:49:43.032Z,66.75
2023-05-09T00:52:09.826Z,68.25
2023-05-09T00:54:36.396Z,66.25
2023-05-09T00:57:03.263Z,59.00
2023-05-09T00:59:29.813Z,64.75
2023-05-09T01:01:56.587Z,62.50
2023-05-09T01:04:23.254Z,62.00
2023-05-09T01:07:02.638Z,61.00
2023-05-09T01:09:37.664Z,60.50
2023-05-09T01:12:13.675Z,60.25
2023-05-09T01:14:46.816Z,65.50
2023-05-09T01:17:19.821Z,63.00
2023-05-09T01:19:57.323Z,66.00
2023-05-09T01:22:28.273Z,66.00
2023-05-09T01:25:07.453Z,61.75
2023-05-09T01:27:34.236Z,67.00
2023-05-09T01:30:03.203Z,61.00
2023-05-09T01:32:31.490Z,59.50
2023-05-09T01:35:00.138Z,59.00
2023-05-09T01:37:34.710Z,61.75
2023-05-09T01:40:06.850Z,62.75
2023-05-09T01:42:55.660Z,62.25
2023-05-09T01:45:23.744Z,56.25
2023-05-09T01:47:50.964Z,59.25
2023-05-09T01:50:18.740Z,59.00
2023-05-09T01:52:48.120Z,59.75
2023-05-09T01:55:15.836Z,59.50
2023-05-09T01:57:43.356Z,57.00
2023-05-09T02:00:10.818Z,56.75
2023-05-09T02:02:38.252Z,54.25
2023-05-09T02:05:05.331Z,57.25
2023-05-09T02:07:32.400Z,52.25
2023-05-09T02:10:00.680Z,53.75
2023-05-09T02:12:27.167Z,52.50
2023-05-09T02:14:53.747Z,56.75
2023-05-09T02:17:21.687Z,51.25
2023-05-09T02:19:48.447Z,53.00
2023-05-09T02:22:15.036Z,53.75
2023-05-09T02:24:42.988Z,54.00
2023-05-09T02:27:10.891Z,53.75
2023-05-09T02:29:43.809Z,52.00
2023-05-09T02:32:12.644Z,52.75
2023-05-09T02:34:39.868Z,39.50
2023-05-09T02:37:07.056Z,53.50
2023-05-09T02:39:36.860Z,51.00
2023-05-09T02:42:11.025Z,46.00
2023-05-09T02:44:38.934Z,48.50
2023-05-09T02:47:06.855Z,47.50
2023-05-09T02:49:33.569Z,43.25
2023-05-09T02:52:00.943Z,25.75
2023-05-09T02:54:27.700Z,46.25
2023-05-09T02:56:54.354Z,46.75
2023-05-09T03:02:10.518Z,46.25
2023-05-09T03:04:40.204Z,46.25
2023-05-09T03:07:17.238Z,44.50
2023-05-09T03:15:19.192Z,40.75
2023-05-09T03:18:23.050Z,44.00
2023-05-09T03:20:50.290Z,48.50
2023-05-09T03:23:17.428Z,41.50
2023-05-09T03:37:26.252Z,39.25
2023-05-09T03:39:54.182Z,44.25
2023-05-09T03:42:21.577Z,43.00
2023-05-09T03:44:49.002Z,36.00
2023-05-09T03:47:18.613Z,39.00
2023-05-09T03:49:46.901Z,41.50
2023-05-09T03:52:13.673Z,38.50
2023-05-09T03:54:40.530Z,45.50
2023-05-09T03:57:10.244Z,41.25
2023-05-09T03:59:39.044Z,44.50
2023-05-09T04:02:06.415Z,41.25
2023-05-09T04:04:34.182Z,41.00
2023-05-09T04:07:04.845Z,44.50
2023-05-09T04:09:34.367Z,38.75
2023-05-09T04:12:01.324Z,42.25
2023-05-09T04:14:32.910Z,40.75
2023-05-09T04:16:59.958Z,41.00
2023-05-09T04:19:26.632Z,41.25
2023-05-09T04:21:53.104Z,38.25
2023-05-09T04:24:19.717Z,30.75
2023-05-09T04:26:46.554Z,34.50
2023-05-09T04:29:13.141Z,34.25
2023-05-09T04:31:39.726Z,31.75
2023-05-09T04:34:06.634Z,34.25
2023-05-09T04:36:34.244Z,20.00
2023-05-09T04:39:00.937Z,33.00
2023-05-09T04:41:28.214Z,30.00
2023-05-09T04:43:54.630Z,27.33
2023-05-09T04:46:22.696Z,29.33
2023-05-09T04:48:50.629Z,28.33
2023-05-09T04:51:17.216Z,30.00
2023-05-09T04:53:43.651Z,27.25
2023-05-09T04:56:10.420Z,29.00
2023-05-09T04:58:40.008Z,17.00
2023-05-09T05:01:07.049Z,28.50
2023-05-09T05:03:33.607Z,24.67
2023-05-09T05:06:00.171Z,22.67
2023-05-09T05:08:26.800Z,24.33
2023-05-09T05:10:53.435Z,20.00
2023-05-09T05:13:21.627Z,22.50
2023-05-09T05:15:48.317Z,16.50
2023-05-09T05:18:14.904Z,20.50
2023-05-09T05:20:41.839Z,14.00
2023-05-09T05:23:08.936Z,16.75
2023-05-09T05:25:35.454Z,15.25
2023-05-09T05:28:02.639Z,13.00
2023-05-09T05:30:29.386Z,11.00
2023-05-09T05:32:55.929Z,12.50
2023-05-09T05:35:23.448Z,12.75
2023-05-09T05:37:50.387Z,10.75
2023-05-09T05:40:16.893Z,12.75
2023-05-09T05:42:44.678Z,11.50
2023-05-09T05:45:11.300Z,14.00
2023-05-09T05:47:37.859Z,13.00
2023-05-09T05:50:07.074Z,11.50
2023-05-09T05:52:33.832Z,10.25
2023-05-09T05:55:00.572Z,12.00
2023-05-09T05:57:27.144Z,12.00
2023-05-09T05:59:53.543Z,13.00
2023-05-09T06:02:20.195Z,11.25
2023-05-09T06:04:46.814Z,8.00
2023-05-09T06:07:14.164Z,8.25
2023-05-09T06:09:40.973Z,6.00
2023-05-09T06:12:07.529Z,6.50
2023-05-09T06:14:34.027Z,6.00
2023-05-09T06:17:01.125Z,4.25
2023-05-09T06:19:27.570Z,3.00
2023-05-09T06:21:54.041Z,6.25
2023-05-09T06:24:34.523Z,5.00
2023-05-09T06:27:02.055Z,3.75
2023-05-09T06:29:28.707Z,3.00
2023-05-09T06:31:55.200Z,5.00
2023-05-09T06:34:21.717Z,4.50
2023-05-09T06:36:48.313Z,4.75
2023-05-09T06:39:14.821Z,4.75
2023-05-09T06:41:41.611Z,6.50
2023-05-09T06:44:08.048Z,4.50
2023-05-09T06:46:34.906Z,0.00
2023-05-09T06:49:02.649Z,0.00
2023-05-09T06:51:29.449Z,4.00
2023-05-09T06:53:56.043Z,5.00
2023-05-09T06:56:23.312Z,5.00
2023-05-09T06:58:49.713Z,4.75
2023-05-09T07:01:16.855Z,5.75
2023-05-09T07:03:43.455Z,5.75
2023-05-09T07:06:09.899Z,3.50
2023-05-09T07:08:36.434Z,5.00
2023-05-09T07:11:02.882Z,4.25
2023-05-09T07:13:29.422Z,5.75
2023-05-09T07:15:56.451Z,5.00
2023-05-09T07:18:23.567Z,4.25
2023-05-09T07:20:50.159Z,3.75
2023-05-09T07:23:16.710Z,4.00
2023-05-09T07:25:44.790Z,3.50
2023-05-09T07:28:12.543Z,4.50
2023-05-09T07:30:39.072Z,5.00
2023-05-09T07:33:06.802Z,3.50
2023-05-09T07:35:33.532Z,2.75
2023-05-09T07:37:59.982Z,4.75
2023-05-09T07:40:26.571Z,3.25
2023-05-09T07:42:55.197Z,3.50
2023-05-09T07:45:23.777Z,4.00
2023-05-09T07:47:50.613Z,3.00
2023-05-09T07:50:17.650Z,3.00
2023-05-09T07:52:44.600Z,3.00
2023-05-09T07:55:12.610Z,3.00
2023-05-09T07:57:40.179Z,3.25
2023-05-09T08:00:07.987Z,3.00
2023-05-09T08:02:34.820Z,3.25
2023-05-09T08:05:01.383Z,3.00
2023-05-09T08:07:27.784Z,2.25
2023-05-09T08:09:54.179Z,2.00
2023-05-09T08:12:20.746Z,4.00
2023-05-09T08:14:47.333Z,3.25
2023-05-09T08:17:13.838Z,3.75
2023-05-09T08:19:40.620Z,3.25
2023-05-09T08:22:07.223Z,5.00
2023-05-09T08:24:33.742Z,3.00
2023-05-09T08:27:00.785Z,4.00
2023-05-09T08:29:27.680Z,4.00
2023-05-09T08:31:54.317Z,5.00
2023-05-09T08:34:20.965Z,4.00
2023-05-09T08:36:47.501Z,3.25
2023-05-09T08:39:14.257Z,2.75
2023-05-09T08:41:41.767Z,5.25
2023-05-09T08:44:08.621Z,4.00
2023-05-09T08:46:37.270Z,5.00
2023-05-09T08:49:05.704Z,3.25
2023-05-09T08:51:32.897Z,4.00
2023-05-09T08:53:59.833Z,3.00
2023-05-09T08:56:26.788Z,4.00
2023-05-09T08:58:54.363Z,3.25
2023-05-09T09:01:21.358Z,4.50
2023-05-09T09:03:49.744Z,3.25
2023-05-09T09:06:17.033Z,3.75
2023-05-09T09:08:44.236Z,4.75
2023-05-09T09:11:15.057Z,3.00
2023-05-09T09:13:42.922Z,4.00
2023-05-09T09:16:11.409Z,3.50
2023-05-09T09:18:39.924Z,4.50
2023-05-09T09:21:09.611Z,4.00
2023-05-09T09:23:37.291Z,6.75
2023-05-09T09:26:07.047Z,5.75
2023-05-09T09:28:33.877Z,6.75
2023-05-09T09:31:00.588Z,4.50
2023-05-09T09:33:28.845Z,3.50
2023-05-09T09:35:56.859Z,5.00
2023-05-09T09:38:24.424Z,8.75
2023-05-09T09:40:57.978Z,4.00
2023-05-09T09:43:28.536Z,4.75
2023-05-09T09:45:55.366Z,4.00
2023-05-09T09:48:25.760Z,3.00
2023-05-09T09:50:54.178Z,5.00
2023-05-09T09:53:20.751Z,3.75
2023-05-09T09:55:51.226Z,3.00
2023-05-09T09:58:18.609Z,5.25
2023-05-09T10:00:48.912Z,4.00
2023-05-09T10:03:18.617Z,4.75
2023-05-09T10:05:45.207Z,4.00
2023-05-09T10:08:11.796Z,3.75
2023-05-09T10:10:38.385Z,3.75
2023-05-09T10:13:10.144Z,4.00
2023-05-09T10:15:52.444Z,4.75
2023-05-09T10:18:23.276Z,2.75
2023-05-09T10:20:50.257Z,3.25
2023-05-09T10:23:17.857Z,3.00
2023-05-09T10:25:49.490Z,2.00
2023-05-09T10:28:18.527Z,3.50
2023-05-09T10:30:57.805Z,5.25
2023-05-09T10:33:26.378Z,4.00
2023-05-09T10:35:54.415Z,3.25
2023-05-09T10:38:21.605Z,4.75
2023-05-09T10:40:51.279Z,4.50
2023-05-09T10:43:17.861Z,4.00
2023-05-09T10:45:44.748Z,3.25
2023-05-09T10:48:11.473Z,4.00
2023-05-09T10:50:40.327Z,3.50
2023-05-09T10:53:07.671Z,1.00
2023-05-09T10:55:50.343Z,3.00
2023-05-09T10:58:20.689Z,5.00
2023-05-09T11:00:51.016Z,3.75
2023-05-09T11:03:20.278Z,4.50
2023-05-09T11:05:48.038Z,3.75
2023-05-09T11:08:28.080Z,3.75
2023-05-09T11:10:55.218Z,4.00
2023-05-09T11:13:24.075Z,3.00
2023-05-09T11:15:53.875Z,3.00
2023-05-09T11:18:21.192Z,2.75
2023-05-09T11:20:49.481Z,3.75
2023-05-09T11:23:17.552Z,0.00
2023-05-09T11:25:45.999Z,3.00
2023-05-09T11:28:26.132Z,3.50
2023-05-09T11:30:54.845Z,4.00
2023-05-09T11:33:22.853Z,3.50
2023-05-09T11:36:09.478Z,2.50
2023-05-09T11:38:42.974Z,4.00
2023-05-09T11:41:09.602Z,3.00
2023-05-09T11:43:39.764Z,2.25
2023-05-09T11:46:06.485Z,3.00
2023-05-09T11:48:39.613Z,3.50
2023-05-09T11:51:06.878Z,3.00
2023-05-09T11:53:33.497Z,2.25
2023-05-09T11:56:02.546Z,4.00
2023-05-09T11:58:29.037Z,3.25
2023-05-09T12:00:55.710Z,3.50
2023-05-09T12:03:22.466Z,2.25
2023-05-09T12:05:49.310Z,3.00
2023-05-09T12:08:16.340Z,3.00
2023-05-09T12:10:42.843Z,3.25
2023-05-09T12:13:10.557Z,2.25
2023-05-09T12:15:40.154Z,2.00
2023-05-09T12:18:08.547Z,3.25
2023-05-09T12:20:47.665Z,4.25
2023-05-09T12:23:15.219Z,3.00
2023-05-09T12:26:08.286Z,2.00
2023-05-09T12:28:35.054Z,2.25
2023-05-09T12:31:01.871Z,2.50
2023-05-09T12:33:29.301Z,2.00
2023-05-09T12:36:04.039Z,2.00
2023-05-09T12:38:30.526Z,2.75
2023-05-09T12:41:02.787Z,3.50
2023-05-09T12:43:30.690Z,3.00
2023-05-09T12:45:57.933Z,3.00
2023-05-09T12:48:24.944Z,1.75
2023-05-09T12:50:51.776Z,2.00
2023-05-09T12:53:25.539Z,2.50
2023-05-09T12:55:54.764Z,3.00
2023-05-09T12:58:21.220Z,3.00
2023-05-09T13:00:47.809Z,3.00
2023-05-09T13:03:25.497Z,1.50
2023-05-09T13:05:56.366Z,3.00
2023-05-09T13:08:23.288Z,2.75
2023-05-09T13:10:51.063Z,3.00
2023-05-09T13:13:20.104Z,3.50
2023-05-09T13:15:46.892Z,3.00
2023-05-09T13:18:13.651Z,3.25
2023-05-09T13:20:40.481Z,3.00
2023-05-09T13:23:06.970Z,3.25
2023-05-09T13:25:33.494Z,4.00
2023-05-09T13:27:59.986Z,4.00
2023-05-09T13:30:26.969Z,4.00
2023-05-09T13:32:53.546Z,4.00
2023-05-09T13:35:20.159Z,3.00
2023-05-09T13:37:46.819Z,3.25
2023-05-09T13:40:13.801Z,2.00
2023-05-09T13:42:41.059Z,3.75
2023-05-09T13:45:08.482Z,4.00
2023-05-09T13:47:36.604Z,2.00
2023-05-09T13:50:04.214Z,3.00
2023-05-09T13:52:31.015Z,1.75
2023-05-09T13:54:57.516Z,3.00
2023-05-09T13:57:24.150Z,4.00
2023-05-09T13:59:50.618Z,3.00
2023-05-09T14:02:17.206Z,2.50
2023-05-09T14:04:45.812Z,4.00
2023-05-09T14:07:13.789Z,3.25
2023-05-09T14:09:40.400Z,2.75
2023-05-09T14:12:07.210Z,3.00
2023-05-09T14:14:33.763Z,3.00
2023-05-09T14:17:00.580Z,2.50
2023-05-09T14:19:30.247Z,4.00
2023-05-09T14:21:56.855Z,3.25
2023-05-09T14:24:23.262Z,3.00
2023-05-09T14:26:49.933Z,3.50
2023-05-09T14:29:16.848Z,3.75
2023-05-09T14:31:43.510Z,3.00
2023-05-09T14:34:10.735Z,3.00
2023-05-09T14:36:37.626Z,3.00
2023-05-09T14:39:04.143Z,3.00
2023-05-09T14:41:30.811Z,3.00
2023-05-09T14:43:57.221Z,2.00
2023-05-09T14:46:24.992Z,3.00
2023-05-09T14:48:52.754Z,3.00
2023-05-09T14:51:19.346Z,3.75
2023-05-09T14:53:46.293Z,2.25
2023-05-09T14:56:13.666Z,3.00
2023-05-09T14:58:40.138Z,2.75
2023-05-09T15:01:06.706Z,4.00
2023-05-09T15:03:33.285Z,3.00
2023-05-09T15:05:59.787Z,3.25
2023-05-09T15:08:26.974Z,2.50
2023-05-09T15:10:53.834Z,4.00
2023-05-09T15:13:21.081Z,2.75
2023-05-09T15:15:47.852Z,3.00
2023-05-09T15:18:16.982Z,2.00
2023-05-09T15:20:43.614Z,3.00
2023-05-09T15:23:10.923Z,3.00
2023-05-09T15:25:37.469Z,3.00
2023-05-09T15:28:04.469Z,3.00
2023-05-09T15:30:31.090Z,3.00
2023-05-09T15:32:57.636Z,3.00
2023-05-09T15:35:24.223Z,4.00
2023-05-09T15:37:50.873Z,2.00
2023-05-09T15:40:17.903Z,2.75
2023-05-09T15:42:44.559Z,4.00
2023-05-09T15:45:11.075Z,4.00
2023-05-09T15:47:37.589Z,2.75
2023-05-09T15:50:05.007Z,2.00
2023-05-09T15:52:31.638Z,4.00
2023-05-09T15:54:59.819Z,3.00
2023-05-09T15:57:26.467Z,3.25
2023-05-09T15:59:56.151Z,4.00
2023-05-09T16:02:23.032Z,3.50
2023-05-09T16:04:49.742Z,3.00
2023-05-09T16:07:16.403Z,5.25
2023-05-09T16:09:43.923Z,3.00
2023-05-09T16:12:10.441Z,4.00
2023-05-09T16:14:36.999Z,1.75
2023-05-09T16:17:06.056Z,3.50
2023-05-09T16:19:34.988Z,3.50
2023-05-09T16:22:02.450Z,3.50
2023-05-09T16:24:29.045Z,4.00
2023-05-09T16:26:55.541Z,4.25
2023-05-09T16:29:22.684Z,5.75
2023-05-09T16:31:49.844Z,6.00
2023-05-09T16:34:16.358Z,7.25
2023-05-09T16:36:44.209Z,4.75
2023-05-09T16:39:10.703Z,4.75
2023-05-09T16:41:37.149Z,6.00
2023-05-09T16:44:03.712Z,2.00
2023-05-09T16:46:30.292Z,4.00
2023-05-09T16:48:56.905Z,4.50
2023-05-09T16:51:23.386Z,2.75
2023-05-09T16:53:49.841Z,6.25
2023-05-09T16:56:16.258Z,7.00
2023-05-09T16:58:44.937Z,5.25
2023-05-09T17:01:11.813Z,6.50
2023-05-09T17:03:38.412Z,4.75
2023-05-09T17:06:04.934Z,3.00
2023-05-09T17:08:31.574Z,5.00
2023-05-09T17:10:58.382Z,5.25
2023-05-09T17:13:24.974Z,3.25
2023-05-09T17:15:53.132Z,4.50
2023-05-09T17:18:33.356Z,3.00
2023-05-09T17:21:03.016Z,5.75
2023-05-09T17:23:29.591Z,6.00
2023-05-09T17:25:56.153Z,4.00
2023-05-09T17:28:22.806Z,6.75
2023-05-09T17:30:49.613Z,6.00
2023-05-09T17:33:16.442Z,8.00
2023-05-09T17:35:43.565Z,3.00
2023-05-09T17:38:10.140Z,6.00
2023-05-09T17:40:36.953Z,6.00
2023-05-09T17:43:03.519Z,3.00
2023-05-09T17:45:30.222Z,12.00
2023-05-09T17:47:57.331Z,5.25
2023-05-09T17:50:23.844Z,4.00
2023-05-09T17:52:50.352Z,5.75
2023-05-09T17:55:16.842Z,4.25
2023-05-09T17:57:43.918Z,5.75
2023-05-09T18:00:10.611Z,5.00
2023-05-09T18:02:37.209Z,5.00
2023-05-09T18:05:03.911Z,3.00
2023-05-09T18:07:31.373Z,4.00
2023-05-09T18:09:58.682Z,5.00
2023-05-09T18:12:25.960Z,3.00
2023-05-09T18:14:53.527Z,3.00
2023-05-09T18:17:19.974Z,2.25
2023-05-09T18:19:46.917Z,4.75
2023-05-09T18:22:15.177Z,6.25
2023-05-09T18:24:41.750Z,5.00
2023-05-09T18:27:08.235Z,4.75
2023-05-09T18:29:34.747Z,5.00
2023-05-09T18:32:02.168Z,2.00
2023-05-09T18:34:28.912Z,4.00
2023-05-09T18:36:55.897Z,4.25
2023-05-09T18:39:22.361Z,4.50
2023-05-09T18:41:49.006Z,8.50
2023-05-09T18:44:15.651Z,8.00
2023-05-09T18:46:42.099Z,9.25
2023-05-09T18:49:09.667Z,10.25
2023-05-09T18:51:36.669Z,9.75
2023-05-09T18:54:03.247Z,10.25
2023-05-09T18:56:29.833Z,12.00
2023-05-09T18:58:56.880Z,10.00
2023-05-09T19:01:24.580Z,11.25
2023-05-09T19:03:54.518Z,11.00
2023-05-09T19:06:21.673Z,9.00
2023-05-09T19:08:48.832Z,11.75
2023-05-09T19:11:16.133Z,9.50
2023-05-09T19:13:48.613Z,7.50
2023-05-09T19:16:16.284Z,11.25
2023-05-09T19:18:42.817Z,11.75
2023-05-09T19:21:09.618Z,12.75
2023-05-09T19:23:36.212Z,13.50
2023-05-09T19:26:03.592Z,17.75
2023-05-09T19:28:30.088Z,20.25
2023-05-09T19:30:57.665Z,17.25
2023-05-09T19:33:25.204Z,21.50
2023-05-09T19:35:51.904Z,17.00
2023-05-09T19:38:18.493Z,16.00
2023-05-09T19:40:44.979Z,14.50
2023-05-09T19:43:11.775Z,17.00
2023-05-09T19:45:38.621Z,11.50
2023-05-09T19:48:05.317Z,10.00
2023-05-09T19:50:31.825Z,13.75
2023-05-09T19:52:58.629Z,9.75
2023-05-09T19:55:25.186Z,13.25
2023-05-09T19:57:52.121Z,12.50
2023-05-09T20:00:18.971Z,12.00
2023-05-09T20:02:45.686Z,13.25
2023-05-09T20:05:12.380Z,10.75
2023-05-09T20:07:39.029Z,11.00
2023-05-09T20:10:05.733Z,9.75
2023-05-09T20:12:32.556Z,14.00
2023-05-09T20:14:58.989Z,9.00
2023-05-09T20:17:25.643Z,9.50
2023-05-09T20:19:52.312Z,11.25
2023-05-09T20:22:18.766Z,11.25
2023-05-09T20:24:45.357Z,10.75
2023-05-09T20:27:11.741Z,11.00
2023-05-09T20:29:38.287Z,10.25
2023-05-09T20:32:05.475Z,12.50
2023-05-09T20:34:32.037Z,12.75
2023-05-09T20:36:58.488Z,11.00
2023-05-09T20:39:25.114Z,10.00
2023-05-09T20:41:52.289Z,9.00
2023-05-09T20:44:19.311Z,11.25
2023-05-09T20:46:45.967Z,12.00
2023-05-09T20:49:12.791Z,8.75
2023-05-09T20:51:39.366Z,7.00
2023-05-09T20:54:06.036Z,8.25
2023-05-09T20:56:33.825Z,12.00
2023-05-09T20:59:01.210Z,10.00
2023-05-09T21:01:28.124Z,9.75
2023-05-09T21:03:54.729Z,12.75
2023-05-09T21:06:21.224Z,12.00
2023-05-09T21:08:47.829Z,12.00
2023-05-09T21:11:14.702Z,11.75
2023-05-09T21:13:41.496Z,8.50
2023-05-09T21:16:08.252Z,8.25
2023-05-09T21:18:34.738Z,10.25
2023-05-09T21:21:02.788Z,9.00
2023-05-09T21:23:29.429Z,9.75
2023-05-09T21:25:56.195Z,10.75
2023-05-09T21:28:22.785Z,10.00
2023-05-09T21:30:53.012Z,10.50
2023-05-09T21:33:20.060Z,12.00
2023-05-09T21:35:46.750Z,11.75
2023-05-09T21:38:13.718Z,8.25
2023-05-09T21:40:41.156Z,12.00
2023-05-09T21:43:07.679Z,8.75
2023-05-09T21:45:34.442Z,8.25
2023-05-09T21:48:01.065Z,6.50
2023-05-09T21:50:27.651Z,8.00
2023-05-09T21:52:56.704Z,7.75
2023-05-09T21:55:23.247Z,9.00
2023-05-09T21:57:49.745Z,10.00
2023-05-09T22:00:17.119Z,12.75
2023-05-09T22:02:44.345Z,11.00
2023-05-09T22:05:11.572Z,8.75
2023-05-09T22:07:38.239Z,12.00
2023-05-09T22:10:05.108Z,8.00
2023-05-09T22:12:31.802Z,5.50
2023-05-09T22:14:58.323Z,8.00
2023-05-09T22:17:25.158Z,7.00
2023-05-09T22:19:52.144Z,8.50
2023-05-09T22:22:18.723Z,9.00
2023-05-09T22:24:45.571Z,8.50
2023-05-09T22:27:12.058Z,8.25
2023-05-09T22:29:38.865Z,8.00
2023-05-09T22:32:07.797Z,9.50
2023-05-09T22:34:35.323Z,8.00
2023-05-09T22:37:01.865Z,9.25
2023-05-09T22:39:28.480Z,11.00
2023-05-09T22:41:55.095Z,9.25
2023-05-09T22:44:22.375Z,8.50
2023-05-09T22:46:48.861Z,10.75
2023-05-09T22:49:15.718Z,9.75
2023-05-09T22:51:42.603Z,8.00
2023-05-09T22:54:09.225Z,9.67
2023-05-09T22:56:35.690Z,7.25
2023-05-09T22:59:02.174Z,10.00
2023-05-09T23:01:29.148Z,11.75
2023-05-09T23:03:55.715Z,10.00
2023-05-09T23:06:22.381Z,12.33
2023-05-09T23:08:48.942Z,11.67
2023-05-09T23:11:15.482Z,10.67
2023-05-09T23:13:42.556Z,10.75
2023-05-09T23:16:09.111Z,10.67
2023-05-09T23:18:35.889Z,10.67
2023-05-09T23:21:02.368Z,11.00
2023-05-09T23:23:29.009Z,1.67
2023-05-09T23:25:55.449Z,8.33
2023-05-09T23:28:25.306Z,11.33
2023-05-09T23:30:52.450Z,11.00
2023-05-09T23:33:19.371Z,10.00
2023-05-09T23:35:46.288Z,10.00
2023-05-09T23:38:12.805Z,10.67
2023-05-09T23:40:39.892Z,11.00
2023-05-09T23:43:06.546Z,11.00
2023-05-09T23:45:33.122Z,10.00
2023-05-09T23:47:59.896Z,10.67
2023-05-09T23:50:26.597Z,11.00
2023-05-09T23:52:53.261Z,11.33
2023-05-09T23:55:19.812Z,10.00
2023-05-09T23:57:46.731Z,11.00
